sensor_id;sensor_type;location;lat;lon;timestamp;temperature;humidity
7496;DHT22;3789;47.064;15.482;2023-04-08T00:00:45;6.10;98.20
7496;DHT22;3789;47.064;15.482;2023-04-08T00:03:15;6.10;98.20
7496;DHT22;3789;47.064;15.482;2023-04-08T00:08:52;6.00;98.50
7496;DHT22;3789;47.064;15.482;2023-04-08T00:11:23;6.00;98.40
7496;DHT22;3789;47.064;15.482;2023-04-08T00:13:54;6.10;98.40
7496;DHT22;3789;47.064;15.482;2023-04-08T00:16:23;6.00;99.70
7496;DHT22;3789;47.064;15.482;2023-04-08T00:18:52;6.00;99.70
7496;DHT22;3789;47.064;15.482;2023-04-08T00:21:20;6.00;99.30
7496;DHT22;3789;47.064;15.482;2023-04-08T00:23:49;6.00;99.00
7496;DHT22;3789;47.064;15.482;2023-04-08T00:26:20;6.00;98.80
7496;DHT22;3789;47.064;15.482;2023-04-08T00:28:48;6.00;99.40
7496;DHT22;3789;47.064;15.482;2023-04-08T00:31:19;6.00;99.50
7496;DHT22;3789;47.064;15.482;2023-04-08T00:33:51;5.90;99.40
7496;DHT22;3789;47.064;15.482;2023-04-08T00:36:18;5.90;99.50
7496;DHT22;3789;47.064;15.482;2023-04-08T00:38:47;5.80;99.50
7496;DHT22;3789;47.064;15.482;2023-04-08T00:41:22;5.80;99.60
7496;DHT22;3789;47.064;15.482;2023-04-08T00:43:51;5.80;99.50
7496;DHT22;3789;47.064;15.482;2023-04-08T00:46:19;5.80;99.50
7496;DHT22;3789;47.064;15.482;2023-04-08T00:48:48;5.80;99.60
7496;DHT22;3789;47.064;15.482;2023-04-08T00:51:19;5.80;99.60
7496;DHT22;3789;47.064;15.482;2023-04-08T00:53:48;5.70;99.70
7496;DHT22;3789;47.064;15.482;2023-04-08T00:56:17;5.70;99.90
7496;DHT22;3789;47.064;15.482;2023-04-08T00:58:46;5.60;99.90
7496;DHT22;3789;47.064;15.482;2023-04-08T01:04:39;5.60;99.90
7496;DHT22;3789;47.064;15.482;2023-04-08T01:07:26;5.60;99.90
7496;DHT22;3789;47.064;15.482;2023-04-08T01:10:29;5.60;99.90
7496;DHT22;3789;47.064;15.482;2023-04-08T01:13:08;5.60;99.90
7496;DHT22;3789;47.064;15.482;2023-04-08T01:15:51;5.60;99.90
7496;DHT22;3789;47.064;15.482;2023-04-08T01:21:34;5.50;99.90
7496;DHT22;3789;47.064;15.482;2023-04-08T01:24:27;5.30;99.00
7496;DHT22;3789;47.064;15.482;2023-04-08T01:27:02;3.40;92.70
7496;DHT22;3789;47.064;15.482;2023-04-08T01:30:18;0.50;96.40
7496;DHT22;3789;47.064;15.482;2023-04-08T01:32:57;0.00;97.20
7496;DHT22;3789;47.064;15.482;2023-04-08T01:35:46;-0.50;99.90
7496;DHT22;3789;47.064;15.482;2023-04-08T01:38:16;-0.60;99.90
7496;DHT22;3789;47.064;15.482;2023-04-08T01:41:09;-0.70;99.90
7496;DHT22;3789;47.064;15.482;2023-04-08T01:43:53;-1.20;99.90
7496;DHT22;3789;47.064;15.482;2023-04-08T01:46:22;-1.30;99.90
7496;DHT22;3789;47.064;15.482;2023-04-08T01:49:43;-1.40;99.90
7496;DHT22;3789;47.064;15.482;2023-04-08T01:52:15;-1.50;99.90
7496;DHT22;3789;47.064;15.482;2023-04-08T01:55:02;-1.70;99.90
7496;DHT22;3789;47.064;15.482;2023-04-08T01:57:43;-2.00;99.90
7496;DHT22;3789;47.064;15.482;2023-04-08T02:00:24;-2.30;99.90
7496;DHT22;3789;47.064;15.482;2023-04-08T02:03:07;-2.20;99.90
7496;DHT22;3789;47.064;15.482;2023-04-08T02:05:38;-2.10;99.90
7496;DHT22;3789;47.064;15.482;2023-04-08T02:08:14;-2.30;99.90
7496;DHT22;3789;47.064;15.482;2023-04-08T02:11:11;-2.70;99.90
7496;DHT22;3789;47.064;15.482;2023-04-08T02:13:46;-3.00;99.90
7496;DHT22;3789;47.064;15.482;2023-04-08T02:19:31;-3.00;99.90
7496;DHT22;3789;47.064;15.482;2023-04-08T02:22:21;-3.00;99.90
7496;DHT22;3789;47.064;15.482;2023-04-08T02:25:12;-2.10;99.90
7496;DHT22;3789;47.064;15.482;2023-04-08T02:27:59;-0.80;99.90
7496;DHT22;3789;47.064;15.482;2023-04-08T02:30:51;0.10;99.90
7496;DHT22;3789;47.064;15.482;2023-04-08T02:33:43;0.90;99.90
7496;DHT22;3789;47.064;15.482;2023-04-08T02:36:35;1.40;99.90
7496;DHT22;3789;47.064;15.482;2023-04-08T02:39:15;1.80;99.90
7496;DHT22;3789;47.064;15.482;2023-04-08T02:41:49;2.10;99.90
7496;DHT22;3789;47.064;15.482;2023-04-08T02:44:31;2.40;99.90
7496;DHT22;3789;47.064;15.482;2023-04-08T02:47:16;2.60;99.90
7496;DHT22;3789;47.064;15.482;2023-04-08T02:49:55;2.80;99.90
7496;DHT22;3789;47.064;15.482;2023-04-08T02:52:40;3.00;99.90
7496;DHT22;3789;47.064;15.482;2023-04-08T02:55:16;3.20;99.90
7496;DHT22;3789;47.064;15.482;2023-04-08T02:57:55;3.40;99.90
7496;DHT22;3789;47.064;15.482;2023-04-08T03:00:22;3.50;99.90
7496;DHT22;3789;47.064;15.482;2023-04-08T03:02:57;3.60;99.90
7496;DHT22;3789;47.064;15.482;2023-04-08T03:05:57;3.70;99.90
7496;DHT22;3789;47.064;15.482;2023-04-08T03:08:42;3.90;99.90
7496;DHT22;3789;47.064;15.482;2023-04-08T03:11:17;4.00;99.90
7496;DHT22;3789;47.064;15.482;2023-04-08T03:14:06;4.00;99.90
7496;DHT22;3789;47.064;15.482;2023-04-08T03:16:34;4.10;99.90
7496;DHT22;3789;47.064;15.482;2023-04-08T03:19:14;4.20;99.90
7496;DHT22;3789;47.064;15.482;2023-04-08T03:21:54;4.20;99.90
7496;DHT22;3789;47.064;15.482;2023-04-08T03:24:37;4.20;99.90
7496;DHT22;3789;47.064;15.482;2023-04-08T03:27:28;4.30;99.90
7496;DHT22;3789;47.064;15.482;2023-04-08T03:30:00;4.30;99.90
7496;DHT22;3789;47.064;15.482;2023-04-08T03:32:29;4.30;99.90
7496;DHT22;3789;47.064;15.482;2023-04-08T03:35:07;4.30;99.90
7496;DHT22;3789;47.064;15.482;2023-04-08T03:37:45;4.20;99.90
7496;DHT22;3789;47.064;15.482;2023-04-08T03:40:14;4.30;99.90
7496;DHT22;3789;47.064;15.482;2023-04-08T03:42:49;4.30;99.90
7496;DHT22;3789;47.064;15.482;2023-04-08T03:45:35;4.30;99.90
7496;DHT22;3789;47.064;15.482;2023-04-08T03:48:28;4.30;99.90
7496;DHT22;3789;47.064;15.482;2023-04-08T03:51:13;4.40;99.90
7496;DHT22;3789;47.064;15.482;2023-04-08T03:54:03;4.50;99.90
7496;DHT22;3789;47.064;15.482;2023-04-08T03:56:54;4.50;99.90
7496;DHT22;3789;47.064;15.482;2023-04-08T03:59:25;4.50;99.90
7496;DHT22;3789;47.064;15.482;2023-04-08T04:02:00;4.40;99.90
7496;DHT22;3789;47.064;15.482;2023-04-08T04:04:41;4.40;99.90
7496;DHT22;3789;47.064;15.482;2023-04-08T04:07:16;4.40;99.90
7496;DHT22;3789;47.064;15.482;2023-04-08T04:09:53;4.40;99.90
7496;DHT22;3789;47.064;15.482;2023-04-08T04:12:27;4.30;99.90
7496;DHT22;3789;47.064;15.482;2023-04-08T04:14:56;4.40;99.90
7496;DHT22;3789;47.064;15.482;2023-04-08T04:17:24;4.50;99.90
7496;DHT22;3789;47.064;15.482;2023-04-08T04:20:06;4.60;99.90
7496;DHT22;3789;47.064;15.482;2023-04-08T04:22:49;4.70;99.90
7496;DHT22;3789;47.064;15.482;2023-04-08T04:25:20;4.90;99.90
7496;DHT22;3789;47.064;15.482;2023-04-08T04:27:58;5.00;99.90
7496;DHT22;3789;47.064;15.482;2023-04-08T04:30:41;5.10;99.90
7496;DHT22;3789;47.064;15.482;2023-04-08T04:33:27;5.10;99.90
7496;DHT22;3789;47.064;15.482;2023-04-08T04:35:57;5.20;99.90
7496;DHT22;3789;47.064;15.482;2023-04-08T04:38:30;5.10;99.90
7496;DHT22;3789;47.064;15.482;2023-04-08T04:41:11;5.10;99.90
7496;DHT22;3789;47.064;15.482;2023-04-08T04:43:52;5.20;99.90
7496;DHT22;3789;47.064;15.482;2023-04-08T04:46:33;5.30;99.90
7496;DHT22;3789;47.064;15.482;2023-04-08T04:49:08;5.40;99.90
7496;DHT22;3789;47.064;15.482;2023-04-08T04:51:40;5.40;99.90
7496;DHT22;3789;47.064;15.482;2023-04-08T04:54:12;5.30;99.90
7496;DHT22;3789;47.064;15.482;2023-04-08T04:56:41;5.30;99.90
7496;DHT22;3789;47.064;15.482;2023-04-08T04:59:10;5.20;99.90
7496;DHT22;3789;47.064;15.482;2023-04-08T05:01:46;5.10;99.90
7496;DHT22;3789;47.064;15.482;2023-04-08T05:04:18;5.00;99.90
7496;DHT22;3789;47.064;15.482;2023-04-08T05:06:53;5.00;99.90
7496;DHT22;3789;47.064;15.482;2023-04-08T05:09:48;5.10;99.90
7496;DHT22;3789;47.064;15.482;2023-04-08T05:12:19;5.10;99.90
7496;DHT22;3789;47.064;15.482;2023-04-08T05:14:49;5.00;99.90
7496;DHT22;3789;47.064;15.482;2023-04-08T05:17:20;5.00;99.90
7496;DHT22;3789;47.064;15.482;2023-04-08T05:19:59;5.00;99.90
7496;DHT22;3789;47.064;15.482;2023-04-08T05:22:32;5.10;99.90
7496;DHT22;3789;47.064;15.482;2023-04-08T05:25:05;5.10;99.90
7496;DHT22;3789;47.064;15.482;2023-04-08T05:27:43;5.20;99.90
7496;DHT22;3789;47.064;15.482;2023-04-08T05:30:12;5.20;99.90
7496;DHT22;3789;47.064;15.482;2023-04-08T05:32:58;5.20;99.90
7496;DHT22;3789;47.064;15.482;2023-04-08T05:35:51;5.30;99.90
7496;DHT22;3789;47.064;15.482;2023-04-08T05:38:25;5.30;99.90
7496;DHT22;3789;47.064;15.482;2023-04-08T05:41:11;5.40;99.90
7496;DHT22;3789;47.064;15.482;2023-04-08T05:43:44;5.40;99.90
7496;DHT22;3789;47.064;15.482;2023-04-08T05:46:41;5.40;99.90
7496;DHT22;3789;47.064;15.482;2023-04-08T05:49:09;5.40;99.90
7496;DHT22;3789;47.064;15.482;2023-04-08T05:51:39;5.40;99.90
7496;DHT22;3789;47.064;15.482;2023-04-08T05:54:14;5.40;99.90
7496;DHT22;3789;47.064;15.482;2023-04-08T05:57:04;5.40;99.90
7496;DHT22;3789;47.064;15.482;2023-04-08T05:59:48;5.40;99.90
7496;DHT22;3789;47.064;15.482;2023-04-08T06:02:20;5.50;99.90
7496;DHT22;3789;47.064;15.482;2023-04-08T06:04:58;5.50;99.90
7496;DHT22;3789;47.064;15.482;2023-04-08T06:07:37;5.20;99.90
7496;DHT22;3789;47.064;15.482;2023-04-08T06:10:17;5.10;99.90
7496;DHT22;3789;47.064;15.482;2023-04-08T06:13:14;5.10;99.90
7496;DHT22;3789;47.064;15.482;2023-04-08T06:16:27;5.10;99.90
7496;DHT22;3789;47.064;15.482;2023-04-08T06:19:06;5.30;99.90
7496;DHT22;3789;47.064;15.482;2023-04-08T06:21:48;5.30;99.90
7496;DHT22;3789;47.064;15.482;2023-04-08T06:24:19;5.30;99.90
7496;DHT22;3789;47.064;15.482;2023-04-08T06:26:50;5.20;99.90
7496;DHT22;3789;47.064;15.482;2023-04-08T06:29:21;5.20;99.90
7496;DHT22;3789;47.064;15.482;2023-04-08T06:31:59;5.30;99.90
7496;DHT22;3789;47.064;15.482;2023-04-08T06:34:40;5.40;99.90
7496;DHT22;3789;47.064;15.482;2023-04-08T06:37:13;5.30;99.90
7496;DHT22;3789;47.064;15.482;2023-04-08T06:39:52;5.20;99.90
7496;DHT22;3789;47.064;15.482;2023-04-08T06:42:41;5.00;99.90
7496;DHT22;3789;47.064;15.482;2023-04-08T06:45:11;4.60;99.90
7496;DHT22;3789;47.064;15.482;2023-04-08T06:47:45;4.50;99.90
7496;DHT22;3789;47.064;15.482;2023-04-08T06:50:22;4.50;99.90
7496;DHT22;3789;47.064;15.482;2023-04-08T06:52:50;4.60;99.90
7496;DHT22;3789;47.064;15.482;2023-04-08T06:55:29;4.50;99.90
7496;DHT22;3789;47.064;15.482;2023-04-08T06:58:16;4.30;99.90
7496;DHT22;3789;47.064;15.482;2023-04-08T07:00:48;4.30;99.90
7496;DHT22;3789;47.064;15.482;2023-04-08T07:03:15;4.30;99.90
7496;DHT22;3789;47.064;15.482;2023-04-08T07:05:49;4.20;99.90
7496;DHT22;3789;47.064;15.482;2023-04-08T07:08:21;4.10;99.90
7496;DHT22;3789;47.064;15.482;2023-04-08T07:11:01;3.90;99.90
7496;DHT22;3789;47.064;15.482;2023-04-08T07:13:29;4.00;99.90
7496;DHT22;3789;47.064;15.482;2023-04-08T07:15:59;4.10;99.90
7496;DHT22;3789;47.064;15.482;2023-04-08T07:18:29;4.10;99.90
7496;DHT22;3789;47.064;15.482;2023-04-08T07:20:58;4.10;99.90
7496;DHT22;3789;47.064;15.482;2023-04-08T07:23:37;4.00;99.90
7496;DHT22;3789;47.064;15.482;2023-04-08T07:26:05;3.90;99.90
7496;DHT22;3789;47.064;15.482;2023-04-08T07:28:35;3.80;99.90
7496;DHT22;3789;47.064;15.482;2023-04-08T07:31:16;3.70;99.90
7496;DHT22;3789;47.064;15.482;2023-04-08T07:33:48;3.70;99.90
7496;DHT22;3789;47.064;15.482;2023-04-08T07:36:25;3.70;99.90
7496;DHT22;3789;47.064;15.482;2023-04-08T07:38:54;4.00;99.90
7496;DHT22;3789;47.064;15.482;2023-04-08T07:41:30;4.10;99.90
7496;DHT22;3789;47.064;15.482;2023-04-08T07:43:59;4.10;99.90
7496;DHT22;3789;47.064;15.482;2023-04-08T07:46:29;4.20;99.90
7496;DHT22;3789;47.064;15.482;2023-04-08T07:48:58;4.20;99.90
7496;DHT22;3789;47.064;15.482;2023-04-08T07:51:27;4.10;99.90
7496;DHT22;3789;47.064;15.482;2023-04-08T07:53:58;4.20;99.90
7496;DHT22;3789;47.064;15.482;2023-04-08T07:56:34;4.20;99.90
7496;DHT22;3789;47.064;15.482;2023-04-08T07:59:03;4.00;99.90
7496;DHT22;3789;47.064;15.482;2023-04-08T08:01:32;3.80;99.90
7496;DHT22;3789;47.064;15.482;2023-04-08T08:04:03;3.70;99.90
7496;DHT22;3789;47.064;15.482;2023-04-08T08:06:33;3.70;99.90
7496;DHT22;3789;47.064;15.482;2023-04-08T08:09:05;3.70;99.90
7496;DHT22;3789;47.064;15.482;2023-04-08T08:11:34;3.70;99.90
7496;DHT22;3789;47.064;15.482;2023-04-08T08:14:06;3.70;99.90
7496;DHT22;3789;47.064;15.482;2023-04-08T08:16:36;3.70;99.90
7496;DHT22;3789;47.064;15.482;2023-04-08T08:19:07;3.80;99.90
7496;DHT22;3789;47.064;15.482;2023-04-08T08:21:38;3.90;99.90
7496;DHT22;3789;47.064;15.482;2023-04-08T08:24:08;3.90;99.90
7496;DHT22;3789;47.064;15.482;2023-04-08T08:26:46;3.90;99.90
7496;DHT22;3789;47.064;15.482;2023-04-08T08:29:17;4.30;99.90
7496;DHT22;3789;47.064;15.482;2023-04-08T08:31:53;4.50;99.90
7496;DHT22;3789;47.064;15.482;2023-04-08T08:34:41;4.80;99.90
7496;DHT22;3789;47.064;15.482;2023-04-08T08:37:09;5.10;99.90
7496;DHT22;3789;47.064;15.482;2023-04-08T08:39:39;5.40;99.90
7496;DHT22;3789;47.064;15.482;2023-04-08T08:42:23;5.60;99.90
7496;DHT22;3789;47.064;15.482;2023-04-08T08:44:55;5.80;99.90
7496;DHT22;3789;47.064;15.482;2023-04-08T08:47:24;6.00;99.90
7496;DHT22;3789;47.064;15.482;2023-04-08T08:49:51;6.10;99.90
7496;DHT22;3789;47.064;15.482;2023-04-08T08:52:21;6.30;99.90
7496;DHT22;3789;47.064;15.482;2023-04-08T08:54:59;6.20;99.90
7496;DHT22;3789;47.064;15.482;2023-04-08T08:57:28;6.20;99.90
7496;DHT22;3789;47.064;15.482;2023-04-08T08:59:58;6.10;99.90
7496;DHT22;3789;47.064;15.482;2023-04-08T09:02:30;6.20;99.90
7496;DHT22;3789;47.064;15.482;2023-04-08T09:05:01;6.30;99.90
7496;DHT22;3789;47.064;15.482;2023-04-08T09:07:36;6.30;99.90
7496;DHT22;3789;47.064;15.482;2023-04-08T09:10:10;6.40;99.90
7496;DHT22;3789;47.064;15.482;2023-04-08T09:12:55;6.40;99.90
7496;DHT22;3789;47.064;15.482;2023-04-08T09:15:28;6.30;99.90
7496;DHT22;3789;47.064;15.482;2023-04-08T09:17:56;6.10;99.90
7496;DHT22;3789;47.064;15.482;2023-04-08T09:20:32;6.10;99.90
7496;DHT22;3789;47.064;15.482;2023-04-08T09:23:02;6.20;99.90
7496;DHT22;3789;47.064;15.482;2023-04-08T09:25:37;6.20;99.90
7496;DHT22;3789;47.064;15.482;2023-04-08T09:28:18;6.30;99.90
7496;DHT22;3789;47.064;15.482;2023-04-08T09:30:50;6.50;99.90
7496;DHT22;3789;47.064;15.482;2023-04-08T09:33:20;6.60;99.90
7496;DHT22;3789;47.064;15.482;2023-04-08T09:36:06;6.70;99.90
7496;DHT22;3789;47.064;15.482;2023-04-08T09:38:34;6.70;99.90
7496;DHT22;3789;47.064;15.482;2023-04-08T09:41:06;6.80;99.90
7496;DHT22;3789;47.064;15.482;2023-04-08T09:43:44;6.90;99.90
7496;DHT22;3789;47.064;15.482;2023-04-08T09:49:37;6.90;99.90
7496;DHT22;3789;47.064;15.482;2023-04-08T09:52:59;6.90;99.90
7496;DHT22;3789;47.064;15.482;2023-04-08T09:55:26;6.90;99.90
7496;DHT22;3789;47.064;15.482;2023-04-08T09:58:21;7.00;99.90
7496;DHT22;3789;47.064;15.482;2023-04-08T10:00:54;6.90;99.90
7496;DHT22;3789;47.064;15.482;2023-04-08T10:03:39;6.80;99.90
7496;DHT22;3789;47.064;15.482;2023-04-08T10:06:11;6.80;99.90
7496;DHT22;3789;47.064;15.482;2023-04-08T10:08:41;6.90;99.90
7496;DHT22;3789;47.064;15.482;2023-04-08T10:11:18;6.90;99.90
7496;DHT22;3789;47.064;15.482;2023-04-08T10:13:47;6.90;99.90
7496;DHT22;3789;47.064;15.482;2023-04-08T10:16:26;5.20;99.90
7496;DHT22;3789;47.064;15.482;2023-04-08T10:18:56;2.80;99.90
7496;DHT22;3789;47.064;15.482;2023-04-08T10:21:50;1.20;99.90
7496;DHT22;3789;47.064;15.482;2023-04-08T10:24:18;0.20;99.90
7496;DHT22;3789;47.064;15.482;2023-04-08T10:26:51;-0.20;99.90
7496;DHT22;3789;47.064;15.482;2023-04-08T10:29:30;-0.70;99.90
7496;DHT22;3789;47.064;15.482;2023-04-08T10:32:00;-0.90;99.90
7496;DHT22;3789;47.064;15.482;2023-04-08T10:34:31;-1.20;99.90
7496;DHT22;3789;47.064;15.482;2023-04-08T10:37:03;-1.40;99.90
7496;DHT22;3789;47.064;15.482;2023-04-08T10:39:32;-1.40;99.90
7496;DHT22;3789;47.064;15.482;2023-04-08T10:42:07;-1.50;99.90
7496;DHT22;3789;47.064;15.482;2023-04-08T10:44:35;-1.60;99.90
7496;DHT22;3789;47.064;15.482;2023-04-08T10:47:04;-1.60;99.90
7496;DHT22;3789;47.064;15.482;2023-04-08T10:49:32;-1.30;99.90
7496;DHT22;3789;47.064;15.482;2023-04-08T10:52:06;-1.50;99.90
7496;DHT22;3789;47.064;15.482;2023-04-08T10:54:37;-1.70;99.90
7496;DHT22;3789;47.064;15.482;2023-04-08T10:57:15;-1.80;99.90
7496;DHT22;3789;47.064;15.482;2023-04-08T10:59:52;-1.90;99.90
7496;DHT22;3789;47.064;15.482;2023-04-08T11:02:22;-2.00;99.90
7496;DHT22;3789;47.064;15.482;2023-04-08T11:05:21;-2.00;99.90
7496;DHT22;3789;47.064;15.482;2023-04-08T11:07:49;-2.00;99.90
7496;DHT22;3789;47.064;15.482;2023-04-08T11:10:17;-2.00;99.90
7496;DHT22;3789;47.064;15.482;2023-04-08T11:12:45;-2.00;99.90
7496;DHT22;3789;47.064;15.482;2023-04-08T11:15:17;-1.80;99.90
7496;DHT22;3789;47.064;15.482;2023-04-08T11:17:57;-1.80;99.90
7496;DHT22;3789;47.064;15.482;2023-04-08T11:20:27;-1.80;99.90
7496;DHT22;3789;47.064;15.482;2023-04-08T11:22:56;-1.30;99.90
7496;DHT22;3789;47.064;15.482;2023-04-08T11:25:25;0.00;99.90
7496;DHT22;3789;47.064;15.482;2023-04-08T11:27:57;1.30;99.90
7496;DHT22;3789;47.064;15.482;2023-04-08T11:30:26;2.30;99.90
7496;DHT22;3789;47.064;15.482;2023-04-08T11:32:56;3.10;99.90
7496;DHT22;3789;47.064;15.482;2023-04-08T11:35:28;3.80;99.90
7496;DHT22;3789;47.064;15.482;2023-04-08T11:37:58;4.40;99.90
7496;DHT22;3789;47.064;15.482;2023-04-08T11:40:29;4.80;99.90
7496;DHT22;3789;47.064;15.482;2023-04-08T11:43:11;5.20;99.90
7496;DHT22;3789;47.064;15.482;2023-04-08T11:45:45;5.70;99.90
7496;DHT22;3789;47.064;15.482;2023-04-08T11:48:14;6.10;99.90
7496;DHT22;3789;47.064;15.482;2023-04-08T11:51:13;6.30;99.90
7496;DHT22;3789;47.064;15.482;2023-04-08T11:53:44;6.80;99.90
7496;DHT22;3789;47.064;15.482;2023-04-08T11:56:21;7.00;99.90
7496;DHT22;3789;47.064;15.482;2023-04-08T11:58:52;7.20;99.90
7496;DHT22;3789;47.064;15.482;2023-04-08T12:01:21;7.20;99.90
7496;DHT22;3789;47.064;15.482;2023-04-08T12:03:59;6.50;99.90
7496;DHT22;3789;47.064;15.482;2023-04-08T12:06:42;4.80;99.90
7496;DHT22;3789;47.064;15.482;2023-04-08T12:09:15;4.00;99.90
7496;DHT22;3789;47.064;15.482;2023-04-08T12:11:50;3.20;99.90
7496;DHT22;3789;47.064;15.482;2023-04-08T12:14:19;2.90;99.90
7496;DHT22;3789;47.064;15.482;2023-04-08T12:16:57;2.90;99.90
7496;DHT22;3789;47.064;15.482;2023-04-08T12:19:26;3.40;99.90
7496;DHT22;3789;47.064;15.482;2023-04-08T12:21:55;4.20;99.90
7496;DHT22;3789;47.064;15.482;2023-04-08T12:24:25;5.00;99.90
7496;DHT22;3789;47.064;15.482;2023-04-08T12:27:00;5.50;99.90
7496;DHT22;3789;47.064;15.482;2023-04-08T12:29:29;5.90;99.90
7496;DHT22;3789;47.064;15.482;2023-04-08T12:31:58;6.20;99.90
7496;DHT22;3789;47.064;15.482;2023-04-08T12:34:28;6.50;99.90
7496;DHT22;3789;47.064;15.482;2023-04-08T12:37:06;6.70;99.90
7496;DHT22;3789;47.064;15.482;2023-04-08T12:39:35;6.90;99.90
7496;DHT22;3789;47.064;15.482;2023-04-08T12:42:05;7.20;99.90
7496;DHT22;3789;47.064;15.482;2023-04-08T12:44:42;7.20;99.90
7496;DHT22;3789;47.064;15.482;2023-04-08T12:47:11;7.20;99.90
7496;DHT22;3789;47.064;15.482;2023-04-08T12:49:38;7.20;99.90
7496;DHT22;3789;47.064;15.482;2023-04-08T12:52:09;7.30;99.90
7496;DHT22;3789;47.064;15.482;2023-04-08T12:54:38;7.40;99.90
7496;DHT22;3789;47.064;15.482;2023-04-08T12:57:06;7.40;99.90
7496;DHT22;3789;47.064;15.482;2023-04-08T12:59:36;7.20;99.90
7496;DHT22;3789;47.064;15.482;2023-04-08T13:02:06;7.30;99.90
7496;DHT22;3789;47.064;15.482;2023-04-08T13:04:35;7.30;99.90
7496;DHT22;3789;47.064;15.482;2023-04-08T13:07:03;7.30;99.90
7496;DHT22;3789;47.064;15.482;2023-04-08T13:09:32;7.10;99.90
7496;DHT22;3789;47.064;15.482;2023-04-08T13:11:59;7.00;99.90
7496;DHT22;3789;47.064;15.482;2023-04-08T13:14:35;6.70;99.90
7496;DHT22;3789;47.064;15.482;2023-04-08T13:17:06;6.50;99.90
7496;DHT22;3789;47.064;15.482;2023-04-08T13:19:37;6.20;99.90
7496;DHT22;3789;47.064;15.482;2023-04-08T13:22:05;6.00;99.90
7496;DHT22;3789;47.064;15.482;2023-04-08T13:24:34;5.90;99.90
7496;DHT22;3789;47.064;15.482;2023-04-08T13:27:04;6.00;99.90
7496;DHT22;3789;47.064;15.482;2023-04-08T13:29:33;5.80;99.90
7496;DHT22;3789;47.064;15.482;2023-04-08T13:32:01;5.80;99.90
7496;DHT22;3789;47.064;15.482;2023-04-08T13:34:32;5.70;99.90
7496;DHT22;3789;47.064;15.482;2023-04-08T13:37:00;5.70;99.90
7496;DHT22;3789;47.064;15.482;2023-04-08T13:39:29;5.90;99.90
7496;DHT22;3789;47.064;15.482;2023-04-08T13:42:05;5.90;99.90
7496;DHT22;3789;47.064;15.482;2023-04-08T13:44:40;5.90;99.90
7496;DHT22;3789;47.064;15.482;2023-04-08T13:47:07;6.00;99.90
7496;DHT22;3789;47.064;15.482;2023-04-08T13:49:36;6.00;99.90
7496;DHT22;3789;47.064;15.482;2023-04-08T13:52:05;6.20;99.90
7496;DHT22;3789;47.064;15.482;2023-04-08T13:54:42;6.10;99.90
7496;DHT22;3789;47.064;15.482;2023-04-08T13:57:09;6.10;99.90
7496;DHT22;3789;47.064;15.482;2023-04-08T13:59:38;6.00;99.90
7496;DHT22;3789;47.064;15.482;2023-04-08T14:02:10;5.80;99.90
7496;DHT22;3789;47.064;15.482;2023-04-08T14:04:40;5.80;99.90
7496;DHT22;3789;47.064;15.482;2023-04-08T14:07:17;5.60;99.90
7496;DHT22;3789;47.064;15.482;2023-04-08T14:09:46;5.40;99.90
7496;DHT22;3789;47.064;15.482;2023-04-08T14:12:14;5.40;99.90
7496;DHT22;3789;47.064;15.482;2023-04-08T14:14:46;5.40;99.90
7496;DHT22;3789;47.064;15.482;2023-04-08T14:17:16;5.40;99.90
7496;DHT22;3789;47.064;15.482;2023-04-08T14:19:46;5.50;99.90
7496;DHT22;3789;47.064;15.482;2023-04-08T14:22:13;5.60;99.90
7496;DHT22;3789;47.064;15.482;2023-04-08T14:24:43;5.60;99.90
7496;DHT22;3789;47.064;15.482;2023-04-08T14:27:12;5.50;99.90
7496;DHT22;3789;47.064;15.482;2023-04-08T14:29:47;5.50;99.90
7496;DHT22;3789;47.064;15.482;2023-04-08T14:32:14;5.50;99.90
7496;DHT22;3789;47.064;15.482;2023-04-08T14:34:44;5.30;99.90
7496;DHT22;3789;47.064;15.482;2023-04-08T14:37:11;4.90;99.90
7496;DHT22;3789;47.064;15.482;2023-04-08T14:39:40;4.90;99.90
7496;DHT22;3789;47.064;15.482;2023-04-08T14:42:08;5.00;99.90
7496;DHT22;3789;47.064;15.482;2023-04-08T14:44:37;4.80;99.90
7496;DHT22;3789;47.064;15.482;2023-04-08T14:47:06;4.70;99.90
7496;DHT22;3789;47.064;15.482;2023-04-08T14:49:43;4.40;99.90
7496;DHT22;3789;47.064;15.482;2023-04-08T14:52:19;4.70;99.90
7496;DHT22;3789;47.064;15.482;2023-04-08T14:54:47;4.80;99.90
7496;DHT22;3789;47.064;15.482;2023-04-08T14:57:15;4.80;99.90
7496;DHT22;3789;47.064;15.482;2023-04-08T14:59:44;4.80;99.90
7496;DHT22;3789;47.064;15.482;2023-04-08T15:02:13;4.90;99.90
7496;DHT22;3789;47.064;15.482;2023-04-08T15:04:43;4.80;99.90
7496;DHT22;3789;47.064;15.482;2023-04-08T15:07:11;4.60;99.90
7496;DHT22;3789;47.064;15.482;2023-04-08T15:09:44;4.70;99.90
7496;DHT22;3789;47.064;15.482;2023-04-08T15:12:12;4.70;99.90
7496;DHT22;3789;47.064;15.482;2023-04-08T15:14:45;4.70;99.90
7496;DHT22;3789;47.064;15.482;2023-04-08T15:17:13;4.50;99.90
7496;DHT22;3789;47.064;15.482;2023-04-08T15:19:43;4.50;99.90
7496;DHT22;3789;47.064;15.482;2023-04-08T15:22:10;4.60;99.90
7496;DHT22;3789;47.064;15.482;2023-04-08T15:24:40;4.50;99.90
7496;DHT22;3789;47.064;15.482;2023-04-08T15:27:09;4.60;99.90
7496;DHT22;3789;47.064;15.482;2023-04-08T15:29:39;4.60;99.90
7496;DHT22;3789;47.064;15.482;2023-04-08T15:32:09;4.50;99.90
7496;DHT22;3789;47.064;15.482;2023-04-08T15:34:38;4.50;99.90
7496;DHT22;3789;47.064;15.482;2023-04-08T15:37:08;4.50;99.90
7496;DHT22;3789;47.064;15.482;2023-04-08T15:39:36;4.60;99.90
7496;DHT22;3789;47.064;15.482;2023-04-08T15:42:05;4.70;99.90
7496;DHT22;3789;47.064;15.482;2023-04-08T15:44:34;4.60;99.90
7496;DHT22;3789;47.064;15.482;2023-04-08T15:47:04;4.60;99.90
7496;DHT22;3789;47.064;15.482;2023-04-08T15:49:37;4.70;99.90
7496;DHT22;3789;47.064;15.482;2023-04-08T15:52:06;4.60;99.90
7496;DHT22;3789;47.064;15.482;2023-04-08T15:54:33;4.70;99.90
7496;DHT22;3789;47.064;15.482;2023-04-08T15:57:03;4.60;99.90
7496;DHT22;3789;47.064;15.482;2023-04-08T15:59:36;4.60;99.90
7496;DHT22;3789;47.064;15.482;2023-04-08T16:02:05;4.60;99.90
7496;DHT22;3789;47.064;15.482;2023-04-08T16:04:34;4.60;99.90
7496;DHT22;3789;47.064;15.482;2023-04-08T16:07:05;4.40;99.90
7496;DHT22;3789;47.064;15.482;2023-04-08T16:09:35;4.40;99.90
7496;DHT22;3789;47.064;15.482;2023-04-08T16:12:04;4.30;99.90
7496;DHT22;3789;47.064;15.482;2023-04-08T16:14:35;4.30;99.90
7496;DHT22;3789;47.064;15.482;2023-04-08T16:17:03;4.30;99.90
7496;DHT22;3789;47.064;15.482;2023-04-08T16:19:32;4.40;99.90
7496;DHT22;3789;47.064;15.482;2023-04-08T16:22:02;4.40;99.90
7496;DHT22;3789;47.064;15.482;2023-04-08T16:24:37;4.40;99.90
7496;DHT22;3789;47.064;15.482;2023-04-08T16:27:09;4.40;99.90
7496;DHT22;3789;47.064;15.482;2023-04-08T16:29:38;4.30;99.90
7496;DHT22;3789;47.064;15.482;2023-04-08T16:32:13;4.40;99.90
7496;DHT22;3789;47.064;15.482;2023-04-08T16:34:42;4.30;99.90
7496;DHT22;3789;47.064;15.482;2023-04-08T16:37:11;4.20;99.90
7496;DHT22;3789;47.064;15.482;2023-04-08T16:39:41;4.10;99.90
7496;DHT22;3789;47.064;15.482;2023-04-08T16:42:11;4.20;99.90
7496;DHT22;3789;47.064;15.482;2023-04-08T16:44:39;4.20;99.90
7496;DHT22;3789;47.064;15.482;2023-04-08T16:47:16;4.10;99.90
7496;DHT22;3789;47.064;15.482;2023-04-08T16:49:46;4.10;99.90
7496;DHT22;3789;47.064;15.482;2023-04-08T16:52:14;4.20;99.90
7496;DHT22;3789;47.064;15.482;2023-04-08T16:54:44;4.20;99.90
7496;DHT22;3789;47.064;15.482;2023-04-08T16:57:15;4.30;99.90
7496;DHT22;3789;47.064;15.482;2023-04-08T16:59:45;4.20;99.90
7496;DHT22;3789;47.064;15.482;2023-04-08T17:02:14;4.10;99.90